»·PEaware :: WAT380 KELP-KPSP

WAT380 :: KELP-KPSP

FLIGHT INFORMATION

Flight Status: Arrived
Operator:
Walker Air Transport
More flights by this operator :: More flights under this callsign
Pilot: Spencer M. (27733)
Aircraft: BOEING 737-800
(B738)
More flights by this aircraft type
Origin: KELP El Paso Intl
United States
Destination: KPSP Palm Springs Intl
United States
More flights between these airports :: More routes between these airports
Route: ATKNN5 FLOGS SSO J50 BLH SBONO1
File this flight plan on PilotEdge
Remarks:
Altitude:
(Current/Filed)
34,000ft
Speed:
(Current/Filed)
450kts
Departed: 14-Sep-21 10:08 AM
Arrived: 14-Sep-21 11:32 AM
Distance/Time
Traveled:
525nm/1:24
Distance/Time
To Go:
Arrived

Flight Plot

Page will automatically refresh every two minutes.

Flight plan parsing failed; only flown route is shown


Map Options




Map Legend


Flown Route
Filed Route
Departure Airport
Arrival Airport
Navaid (VOR, NDB)
Fix

Horizontal Profiles

Position Reports

Time Latitude Longitude Heading Altitude Ground
Speed
14-Sep-21 09:43 31.800626 -106.394216 173 3925ft 0kts
14-Sep-21 09:44 31.800626 -106.394216 173 3925ft 0kts
14-Sep-21 09:45 31.800626 -106.394216 173 3925ft 0kts
14-Sep-21 09:46 31.800626 -106.394216 173 3925ft 0kts
14-Sep-21 09:47 31.800626 -106.394216 173 3925ft 0kts
14-Sep-21 09:48 31.800626 -106.394216 173 3925ft 0kts
14-Sep-21 09:49 31.800626 -106.394216 173 3925ft 0kts
14-Sep-21 09:50 31.800626 -106.394216 173 3925ft 0kts
14-Sep-21 09:51 31.800626 -106.394216 173 3925ft 0kts
14-Sep-21 09:52 31.800626 -106.394216 173 3925ft 0kts
14-Sep-21 09:53 31.800626 -106.394216 173 3925ft 0kts
14-Sep-21 09:54 31.800933 -106.394257 174 3925ft 2kts
14-Sep-21 09:55 31.801398 -106.394642 115 3924ft 2kts
14-Sep-21 09:56 31.801464 -106.394973 92 3923ft 0kts
14-Sep-21 09:56 31.801464 -106.394972 92 3923ft 0kts
14-Sep-21 09:58 31.801463 -106.394937 92 3923ft 0kts
14-Sep-21 09:59 31.801379 -106.393215 94 3926ft 9kts
14-Sep-21 10:00 31.799897 -106.388286 89 3930ft 21kts
14-Sep-21 10:01 31.799931 -106.381107 89 3941ft 21kts
14-Sep-21 10:01 31.799723 -106.375144 94 3949ft 22kts
14-Sep-21 10:02 31.799406 -106.368243 93 3959ft 20kts
14-Sep-21 10:04 31.799440 -106.360546 22 3950ft 10kts
14-Sep-21 10:05 31.799627 -106.360494 9 3949ft 0kts
14-Sep-21 10:06 31.799628 -106.360494 10 3949ft 0kts
14-Sep-21 10:06 31.800739 -106.361214 274 3951ft 17kts
14-Sep-21 10:07 31.802755 -106.405132 269 4552ft 202kts
14-Sep-21 10:08 31.771869 -106.471995 253 6459ft 271kts
14-Sep-21 10:10 31.798262 -106.570688 300 9860ft 295kts
14-Sep-21 10:11 31.823833 -106.673686 282 11483ft 354kts
14-Sep-21 10:11 31.841638 -106.770328 282 13707ft 365kts
14-Sep-21 10:12 31.863164 -106.889033 282 16241ft 376kts
14-Sep-21 10:13 31.885431 -107.012023 282 18530ft 387kts
14-Sep-21 10:14 31.908207 -107.138107 282 20572ft 399kts
14-Sep-21 10:15 31.931585 -107.268160 282 22454ft 410kts
14-Sep-21 10:16 31.955481 -107.401898 283 24183ft 421kts
14-Sep-21 10:17 31.979676 -107.538130 283 25858ft 430kts
14-Sep-21 10:18 32.004321 -107.677773 282 27427ft 437kts
14-Sep-21 10:19 32.029166 -107.819495 282 28825ft 445kts
14-Sep-21 10:20 32.054251 -107.963508 282 30110ft 453kts
14-Sep-21 10:21 32.079356 -108.108783 283 31761ft 447kts
14-Sep-21 10:22 32.103639 -108.250582 283 33560ft 435kts
14-Sep-21 10:23 32.127414 -108.390285 283 34177ft 440kts
14-Sep-21 10:24 32.151773 -108.533971 283 34172ft 447kts
14-Sep-21 10:25 32.175855 -108.677360 282 34173ft 445kts
14-Sep-21 10:26 32.199742 -108.820807 282 34173ft 444kts
14-Sep-21 10:27 32.223383 -108.963741 282 34174ft 444kts
14-Sep-21 10:28 32.246834 -109.106489 282 34159ft 444kts
14-Sep-21 10:29 32.269203 -109.249774 283 34145ft 443kts
14-Sep-21 10:30 32.300967 -109.389931 287 34146ft 443kts
14-Sep-21 10:31 32.334720 -109.529936 287 34141ft 443kts
14-Sep-21 10:32 32.368617 -109.669876 287 34126ft 443kts
14-Sep-21 10:33 32.402555 -109.810418 287 34110ft 445kts
14-Sep-21 10:34 32.436346 -109.950896 287 34095ft 445kts
14-Sep-21 10:35 32.469966 -110.091353 287 34083ft 443kts
14-Sep-21 10:36 32.503522 -110.232292 287 34082ft 443kts
14-Sep-21 10:37 32.536630 -110.372102 286 34082ft 442kts
14-Sep-21 10:38 32.569621 -110.512180 286 34082ft 441kts
14-Sep-21 10:39 32.602045 -110.652415 285 34082ft 440kts
14-Sep-21 10:40 32.633898 -110.792487 286 34082ft 439kts
14-Sep-21 10:41 32.666018 -110.932140 286 34075ft 438kts
14-Sep-21 10:42 32.697991 -111.071225 286 34042ft 438kts
14-Sep-21 10:43 32.729848 -111.210361 286 34027ft 436kts
14-Sep-21 10:44 32.761532 -111.349457 286 34027ft 437kts
14-Sep-21 10:45 32.793088 -111.488750 286 34027ft 435kts
14-Sep-21 10:46 32.824354 -111.627534 286 34027ft 436kts
14-Sep-21 10:47 32.854872 -111.766912 285 34027ft 436kts
14-Sep-21 10:48 32.883558 -111.906225 280 34014ft 435kts
14-Sep-21 10:49 32.898714 -112.049109 278 33974ft 435kts
14-Sep-21 10:50 32.912455 -112.191357 277 33963ft 433kts
14-Sep-21 10:51 32.925880 -112.334269 277 33963ft 434kts
14-Sep-21 10:52 32.939055 -112.476978 277 33963ft 433kts
14-Sep-21 10:53 32.955540 -112.619002 288 33961ft 432kts
14-Sep-21 10:54 33.015302 -112.742457 306 33963ft 432kts
14-Sep-21 10:55 33.092486 -112.851823 309 33959ft 432kts
14-Sep-21 10:56 33.172012 -112.958671 310 33952ft 431kts
14-Sep-21 10:57 33.252194 -113.065541 310 33945ft 432kts
14-Sep-21 10:58 33.332144 -113.172096 310 33945ft 431kts
14-Sep-21 10:59 33.412129 -113.279064 308 33944ft 430kts
14-Sep-21 11:00 33.466038 -113.404792 284 33951ft 428kts
14-Sep-21 11:01 33.483157 -113.545218 278 33956ft 428kts
14-Sep-21 11:02 33.497037 -113.686622 277 33960ft 427kts
14-Sep-21 11:03 33.510703 -113.827689 277 33964ft 427kts
14-Sep-21 11:04 33.524041 -113.968768 277 33968ft 427kts
14-Sep-21 11:05 33.536970 -114.107608 277 33953ft 408kts
14-Sep-21 11:06 33.549826 -114.245176 277 33919ft 417kts
14-Sep-21 11:07 33.562506 -114.382124 277 33917ft 415kts
14-Sep-21 11:08 33.575130 -114.519972 277 33917ft 415kts
14-Sep-21 11:09 33.587418 -114.655979 276 33899ft 402kts
14-Sep-21 11:10 33.608881 -114.786427 287 32164ft 408kts
14-Sep-21 11:11 33.647191 -114.913177 290 28026ft 401kts
14-Sep-21 11:12 33.686946 -115.035909 290 25632ft 389kts
14-Sep-21 11:13 33.725765 -115.154690 290 23924ft 370kts
14-Sep-21 11:14 33.763980 -115.271743 290 23934ft 379kts
14-Sep-21 11:15 33.802033 -115.388570 290 21232ft 380kts
14-Sep-21 11:16 33.840177 -115.506888 289 17172ft 373kts
14-Sep-21 11:17 33.875336 -115.616667 289 15018ft 345kts
14-Sep-21 11:18 33.908688 -115.724205 281 12987ft 339kts
14-Sep-21 11:19 33.909702 -115.835052 263 11033ft 328kts
14-Sep-21 11:20 33.900210 -115.936568 251 10470ft 284kts
14-Sep-21 11:21 33.863469 -116.019042 238 9153ft 276kts
14-Sep-21 11:22 33.825230 -116.095729 238 8040ft 266kts
14-Sep-21 11:23 33.769183 -116.149919 204 6031ft 262kts
14-Sep-21 11:24 33.710058 -116.186256 221 5438ft 231kts
14-Sep-21 11:25 33.685047 -116.255165 263 4908ft 229kts
14-Sep-21 11:26 33.678933 -116.326105 262 4738ft 209kts
14-Sep-21 11:27 33.697233 -116.386186 322 3598ft 199kts
14-Sep-21 11:28 33.739994 -116.424975 322 2442ft 183kts
14-Sep-21 11:29 33.775777 -116.458770 322 1499ft 146kts
14-Sep-21 11:30 33.807778 -116.488227 324 759ft 142kts
14-Sep-21 11:31 33.833191 -116.510734 319 447ft 22kts
14-Sep-21 11:32 33.833100 -116.512107 204 448ft 0kts
14-Sep-21 11:33 33.828587 -116.508738 142 436ft 33kts
14-Sep-21 11:34 33.823784 -116.506965 169 425ft 0kts
14-Sep-21 11:35 33.823784 -116.506965 169 425ft 0kts
14-Sep-21 11:36 33.823784 -116.506965 169 425ft 0kts

Navigation Log

Ident Type
Flight plan parsing failed, navigation log unavailable